Time;durP1;ratioP1;P1;durP2;ratioP2;P2;SDS_P1;SDS_P2;PMS_P1;PMS_P2;Temp;Humidity;BMP_temperature;BMP_pressure;BME280_temperature;BME280_humidity;BME280_pressure;Samples;Min_cycle;Max_cycle;Signal;HPM_P1;HPM_P2
2024/04/06 00:01:50;;;;;;;4.88;2.50;;;;;;;18.35;37.22;99256.47;5014644;28;20056;-86
2024/04/06 00:04:16;;;;;;;4.90;2.80;;;;;;;18.33;37.20;99249.66;5031565;28;20038;-85
2024/04/06 00:06:41;;;;;;;5.55;2.58;;;;;;;18.31;37.59;99254.28;5032594;28;20485;-86
2024/04/06 00:09:07;;;;;;;5.75;2.83;;;;;;;18.29;37.50;99258.91;5014377;28;20067;-88
2024/04/06 00:11:32;;;;;;;10.32;2.40;;;;;;;18.26;37.49;99263.53;5031317;28;20048;-87
2024/04/06 00:13:58;;;;;;;5.72;2.35;;;;;;;18.24;37.65;99262.84;5032492;28;20037;-88
2024/04/06 00:16:23;;;;;;;5.40;2.15;;;;;;;18.19;37.68;99259.00;5014642;28;20033;-88
2024/04/06 00:18:49;;;;;;;7.38;2.30;;;;;;;18.22;37.57;99264.81;5014496;28;20405;-86
2024/04/06 00:21:14;;;;;;;4.03;2.10;;;;;;;18.19;37.80;99262.47;5014662;28;20037;-87
2024/04/06 00:23:40;;;;;;;4.47;2.00;;;;;;;18.20;37.64;99269.41;5032254;28;20425;-87
2024/04/06 00:26:05;;;;;;;3.75;1.90;;;;;;;18.14;37.55;99258.63;5014299;28;20029;-87
2024/04/06 00:28:31;;;;;;;6.60;2.10;;;;;;;18.15;37.71;99268.22;5015119;28;20401;-87
2024/04/06 00:30:57;;;;;;;5.25;2.22;;;;;;;18.12;37.86;99264.06;5014637;28;20124;-88
2024/04/06 00:33:22;;;;;;;5.18;2.15;;;;;;;18.06;37.76;99262.88;5047280;28;20037;-87
2024/04/06 00:35:48;;;;;;;6.05;2.47;;;;;;;18.05;37.97;99265.66;5001570;28;20040;-87
2024/04/06 00:38:13;;;;;;;4.28;2.03;;;;;;;18.00;38.04;99260.00;5035729;28;20033;-87
2024/04/06 00:40:39;;;;;;;3.53;1.85;;;;;;;17.96;38.02;99256.00;5018678;28;20026;-87
2024/04/06 00:43:04;;;;;;;4.97;2.05;;;;;;;17.98;38.12;99261.94;5019287;28;20079;-88
2024/04/06 00:45:30;;;;;;;4.28;2.00;;;;;;;17.96;38.06;99261.28;5029769;28;20037;-87
2024/04/06 00:47:55;;;;;;;6.53;2.08;;;;;;;17.95;38.04;99257.81;5022327;28;20079;-86
2024/04/06 00:50:21;;;;;;;3.50;1.80;;;;;;;17.94;38.25;99258.78;5002499;28;20497;-87
2024/04/06 00:52:46;;;;;;;4.13;2.03;;;;;;;17.90;38.32;99263.56;5019580;28;20120;-88
2024/04/06 00:55:12;;;;;;;4.50;2.00;;;;;;;17.85;38.33;99259.66;5024618;28;20022;-87
2024/04/06 00:57:37;;;;;;;3.75;1.85;;;;;;;17.85;38.26;99259.66;5028700;28;20463;-88
2024/04/06 01:00:03;;;;;;;4.75;1.80;;;;;;;17.82;38.20;99255.53;5036858;28;20033;-90
2024/04/06 01:02:29;;;;;;;3.95;1.80;;;;;;;17.86;38.11;99263.97;5034645;28;20045;-90
2024/04/06 01:04:54;;;;;;;4.72;1.73;;;;;;;17.83;38.45;99254.53;5019630;28;20071;-89
2024/04/06 01:07:20;;;;;;;4.60;1.77;;;;;;;17.81;38.30;99258.31;5037379;28;20093;-89
2024/04/06 01:09:45;;;;;;;2.78;1.48;;;;;;;17.79;38.32;99258.47;5020082;28;20503;-90
2024/04/06 01:12:11;;;;;;;4.07;1.63;;;;;;;17.79;38.49;99262.91;5020019;28;20112;-89
2024/04/06 01:14:37;;;;;;;3.13;1.30;;;;;;;17.73;38.32;99251.97;5019611;28;20480;-85
2024/04/06 01:17:03;;;;;;;5.05;1.75;;;;;;;17.71;38.53;99250.44;5035476;28;20113;-88
2024/04/06 01:19:28;;;;;;;3.40;1.67;;;;;;;17.73;38.54;99251.97;5018435;28;20104;-87
2024/04/06 01:21:54;;;;;;;3.75;1.48;;;;;;;17.73;38.56;99245.88;5024196;28;20038;-87
2024/04/06 01:24:29;;;;;;;4.43;1.48;;;;;;;17.68;38.47;99240.22;5031529;28;20041;-89
2024/04/06 01:26:55;;;;;;;5.13;1.60;;;;;;;17.71;38.57;99229.31;5034597;28;20517;-89
2024/04/06 01:29:30;;;;;;;5.07;1.50;;;;;;;17.69;38.69;99229.47;5034669;28;20029;-89
2024/04/06 01:31:56;;;;;;;4.07;2.05;;;;;;;17.69;38.62;99236.56;5050782;28;20100;-86
2024/04/06 01:34:21;;;;;;;6.47;2.47;;;;;;;17.66;38.74;99226.31;5001091;28;20025;-87
2024/04/06 01:36:47;;;;;;;8.90;3.22;;;;;;;17.67;38.75;99235.91;5017566;28;20163;-88
2024/04/06 01:39:13;;;;;;;8.18;3.60;;;;;;;17.65;38.68;99228.13;5017519;28;20067;-88
2024/04/06 01:41:41;;;;;;;9.10;4.20;;;;;;;17.60;38.88;99219.00;5034441;28;20033;-88
2024/04/06 01:44:06;;;;;;;9.90;4.55;;;;;;;17.61;38.93;99221.50;5016871;28;20021;-86
2024/04/06 01:46:33;;;;;;;10.93;6.13;;;;;;;17.57;39.02;99216.66;5032002;28;20037;-88
2024/04/06 01:48:58;;;;;;;12.32;6.72;;;;;;;17.59;39.17;99218.19;5016603;28;20033;-88
2024/04/06 01:51:24;;;;;;;13.23;6.25;;;;;;;17.56;39.17;99221.13;5016469;28;20033;-86
2024/04/06 01:53:50;;;;;;;16.95;7.43;;;;;;;17.55;39.15;99222.09;5017733;28;20496;-88
2024/04/06 01:56:15;;;;;;;15.63;7.85;;;;;;;17.53;39.38;99224.88;5034488;28;20072;-88
2024/04/06 01:58:40;;;;;;;14.23;8.45;;;;;;;17.48;39.40;99221.03;5017150;28;20129;-88
2024/04/06 02:01:06;;;;;;;16.02;7.50;;;;;;;17.49;39.13;99217.41;5013718;28;20112;-88
2024/04/06 02:03:34;;;;;;;15.27;7.32;;;;;;;17.50;39.45;99216.44;5014216;28;20121;-86
2024/04/06 02:06:00;;;;;;;14.15;7.53;;;;;;;17.51;39.59;99220.75;5030084;28;20037;-87
2024/04/06 02:08:25;;;;;;;16.52;6.65;;;;;;;17.48;39.37;99219.22;4997657;28;20034;-87
2024/04/06 02:10:51;;;;;;;13.30;6.90;;;;;;;17.48;39.31;99223.69;5016210;28;20485;-87
2024/04/06 02:13:16;;;;;;;13.05;6.70;;;;;;;17.47;39.24;99222.00;5018858;28;20037;-87
2024/04/06 02:15:43;;;;;;;15.23;6.57;;;;;;;17.46;39.26;99218.56;5018790;28;20441;-88
2024/04/06 02:18:09;;;;;;;14.05;6.70;;;;;;;17.47;39.09;99222.84;5019209;28;20401;-87
2024/04/06 02:20:34;;;;;;;11.60;6.57;;;;;;;17.42;39.21;99214.53;5019203;28;20044;-87
2024/04/06 02:23:00;;;;;;;13.38;7.03;;;;;;;17.41;39.18;99218.19;5015104;28;20034;-88
2024/04/06 02:25:25;;;;;;;13.45;6.75;;;;;;;17.40;39.22;99213.03;5015017;28;20045;-88
2024/04/06 02:27:51;;;;;;;13.43;6.50;;;;;;;17.38;39.08;99210.56;5015832;28;20375;-89
2024/04/06 02:30:17;;;;;;;12.35;6.53;;;;;;;17.38;39.33;99218.47;5013598;28;20416;-89
2024/04/06 02:32:43;;;;;;;11.13;5.90;;;;;;;17.39;39.38;99222.75;5013925;28;20060;-88
2024/04/06 02:35:09;;;;;;;14.23;7.00;;;;;;;17.36;39.16;99223.03;5012902;28;20413;-88
2024/04/06 02:37:34;;;;;;;12.60;6.18;;;;;;;17.40;39.21;99232.34;5013771;28;20022;-88
2024/04/06 02:39:59;;;;;;;14.23;6.35;;;;;;;17.38;39.34;99226.38;5030640;28;20477;-88
2024/04/06 02:42:25;;;;;;;10.38;6.05;;;;;;;17.35;39.24;99221.41;5031237;28;20038;-89
2024/04/06 02:44:50;;;;;;;16.70;6.72;;;;;;;17.39;39.27;99227.22;5030924;28;20033;-89
2024/04/06 02:47:16;;;;;;;13.70;6.53;;;;;;;17.34;39.24;99225.00;5030010;28;20034;-88
2024/04/06 02:49:41;;;;;;;11.68;6.53;;;;;;;17.35;39.37;99224.88;5036545;28;20038;-83
2024/04/06 02:52:07;;;;;;;13.23;6.50;;;;;;;17.35;39.28;99224.03;5036883;28;20053;-90
2024/04/06 02:54:33;;;;;;;15.35;7.28;;;;;;;17.31;39.14;99220.03;5026796;28;20141;-88
2024/04/06 02:56:58;;;;;;;12.88;6.60;;;;;;;17.31;39.28;99215.56;5030467;28;20022;-88
2024/04/06 02:59:24;;;;;;;14.55;6.63;;;;;;;17.28;39.28;99209.78;5014698;28;20029;-89
2024/04/06 03:01:49;;;;;;;16.20;6.80;;;;;;;17.31;39.33;99210.28;4999865;28;20061;-89
2024/04/06 03:04:15;;;;;;;13.70;7.15;;;;;;;17.29;39.25;99217.53;5017596;28;20041;-89
2024/04/06 03:06:40;;;;;;;15.45;7.25;;;;;;;17.29;39.40;99209.63;5033469;28;20512;-89
2024/04/06 03:09:06;;;;;;;14.18;7.45;;;;;;;17.26;39.27;99215.19;5049727;28;20029;-85
2024/04/06 03:11:32;;;;;;;15.77;7.85;;;;;;;17.23;39.47;99218.13;5023066;28;20487;-87
2024/04/06 03:13:57;;;;;;;15.75;7.35;;;;;;;17.26;39.39;99215.19;5033352;28;20025;-89
2024/04/06 03:16:23;;;;;;;15.70;7.30;;;;;;;17.22;39.26;99213.84;5016576;28;20037;-88
2024/04/06 03:18:48;;;;;;;17.23;7.03;;;;;;;17.27;39.28;99221.31;5024458;28;20068;-89
2024/04/06 03:21:14;;;;;;;15.82;7.53;;;;;;;17.26;39.29;99220.47;5050274;28;20044;-86
2024/04/06 03:23:39;;;;;;;14.60;6.10;;;;;;;17.26;39.36;99227.56;5017323;28;20100;-88
2024/04/06 03:26:04;;;;;;;15.07;6.43;;;;;;;17.24;39.34;99233.00;5015210;28;20045;-87
2024/04/06 03:28:30;;;;;;;15.85;6.05;;;;;;;17.25;39.33;99239.94;5033884;28;20030;-87
2024/04/06 03:30:57;;;;;;;12.77;6.72;;;;;;;17.22;39.23;99242.88;5033101;28;20045;-88
2024/04/06 03:33:22;;;;;;;12.70;6.30;;;;;;;17.24;39.30;99243.53;5036573;28;20036;-88
2024/04/06 03:35:48;;;;;;;14.52;6.07;;;;;;;17.25;39.27;99252.28;5021252;28;20037;-86
2024/04/06 03:38:13;;;;;;;12.52;5.95;;;;;;;17.24;39.47;99245.38;5021792;28;20029;-87
2024/04/06 03:40:39;;;;;;;10.65;5.47;;;;;;;17.22;39.36;99252.56;5007372;28;20072;-88
2024/04/06 03:43:04;;;;;;;12.02;5.88;;;;;;;17.20;39.34;99260.63;5028799;28;20061;-87
2024/04/06 03:45:30;;;;;;;12.00;6.03;;;;;;;17.18;39.40;99257.31;5022743;28;20052;-87
2024/04/06 03:47:55;;;;;;;13.68;5.38;;;;;;;17.23;39.52;99262.16;5022883;28;20068;-88
2024/04/06 03:50:21;;;;;;;15.23;5.90;;;;;;;17.24;39.42;99266.47;5003734;28;20029;-88
2024/04/06 03:52:48;;;;;;;9.60;5.10;;;;;;;17.26;39.43;99262.69;5045746;28;20112;-88
2024/04/06 03:55:14;;;;;;;11.75;5.57;;;;;;;17.24;39.42;99256.72;5028396;28;20053;-87
2024/04/06 03:57:40;;;;;;;9.38;5.40;;;;;;;17.26;39.66;99261.88;5014809;28;20125;-90
2024/04/06 04:00:11;;;;;;;8.88;5.05;;;;;;;17.31;39.31;99260.44;5047810;28;20030;-87
2024/04/06 04:02:37;;;;;;;11.07;5.20;;;;;;;17.65;38.76;99262.47;5039229;28;20105;-86
2024/04/06 04:05:03;;;;;;;10.77;5.22;;;;;;;17.95;37.97;99259.59;5003979;28;20110;-86
2024/04/06 04:07:30;;;;;;;12.07;5.20;;;;;;;18.26;37.70;99258.25;5016511;28;20032;-85
2024/04/06 04:09:57;;;;;;;9.93;5.15;;;;;;;18.85;36.62;99260.28;5018738;28;20037;-85
2024/04/06 04:12:23;;;;;;;9.35;5.25;;;;;;;19.21;36.20;99244.22;5000212;28;20072;-87
2024/04/06 04:14:48;;;;;;;11.55;5.22;;;;;;;19.29;35.95;99246.06;4988126;28;20456;-88
2024/04/06 04:17:14;;;;;;;12.75;5.35;;;;;;;19.09;36.30;99243.69;5022498;28;20037;-87
2024/04/06 04:19:39;;;;;;;10.48;5.55;;;;;;;19.40;35.79;99247.59;5004970;28;20480;-87
2024/04/06 04:22:05;;;;;;;14.15;6.30;;;;;;;20.28;34.50;99256.81;5001266;28;20033;-87
2024/04/06 04:24:30;;;;;;;11.85;6.03;;;;;;;20.99;33.38;99249.06;4991854;28;20042;-88
2024/04/06 04:26:56;;;;;;;14.45;6.68;;;;;;;21.29;33.07;99245.59;5016634;28;20042;-88
2024/04/06 04:29:21;;;;;;;11.90;6.13;;;;;;;21.69;32.06;99257.00;4997390;28;20034;-86
2024/04/06 04:31:47;;;;;;;18.92;7.50;;;;;;;22.38;31.16;99258.81;5022365;28;20053;-88
2024/04/06 04:34:12;;;;;;;14.60;6.82;;;;;;;22.89;30.70;99263.44;4988033;28;20042;-88
2024/04/06 04:36:38;;;;;;;17.50;7.47;;;;;;;23.60;29.57;99268.25;5021864;28;20030;-89
2024/04/06 04:39:04;;;;;;;14.07;7.63;;;;;;;24.68;27.92;99254.84;5004208;28;20037;-89
2024/04/06 04:41:31;;;;;;;12.88;5.05;;;;;;;25.19;31.78;99263.50;4996843;28;20036;-89
2024/04/06 04:43:56;;;;;;;13.40;7.00;;;;;;;24.81;31.57;99264.78;5012776;28;20112;-85
2024/04/06 04:46:23;;;;;;;19.55;8.70;;;;;;;24.34;31.07;99261.78;5013911;28;20037;-84
2024/04/06 04:49:01;;;;;;;17.05;9.32;;;;;;;24.16;30.96;99256.06;5011938;28;20030;-85
2024/04/06 04:51:27;;;;;;;18.60;10.52;;;;;;;23.80;31.28;99262.31;4997066;28;20025;-84
2024/04/06 04:53:53;;;;;;;20.40;10.25;;;;;;;24.03;30.67;99264.78;4995947;28;20453;-83
2024/04/06 04:56:19;;;;;;;21.00;11.23;;;;;;;23.61;31.14;99256.56;4994785;28;20038;-85
2024/04/06 04:58:45;;;;;;;22.40;11.40;;;;;;;23.26;31.35;99258.22;4996565;28;20026;-84
2024/04/06 05:01:10;;;;;;;23.30;11.85;;;;;;;23.06;31.47;99261.44;4992856;28;20062;-83
2024/04/06 05:03:36;;;;;;;24.52;11.75;;;;;;;24.40;29.83;99262.84;4992339;28;20030;-85
2024/04/06 05:06:02;;;;;;;25.83;12.20;;;;;;;25.12;28.76;99265.34;4992428;28;20037;-84
2024/04/06 05:08:28;;;;;;;22.98;12.60;;;;;;;26.54;26.77;99263.56;4993379;28;20041;-85
2024/04/06 05:10:53;;;;;;;22.58;11.55;;;;;;;27.83;24.92;99261.03;4993140;28;20034;-86
2024/04/06 05:13:19;;;;;;;24.45;11.65;;;;;;;28.31;24.08;99260.47;5009937;28;20081;-87
2024/04/06 05:15:55;;;;;;;26.33;12.38;;;;;;;27.52;25.26;99264.53;4992272;28;20035;-88
2024/04/06 05:18:23;;;;;;;23.33;13.20;;;;;;;28.15;24.60;99264.53;4982397;28;20023;-89
2024/04/06 05:20:54;;;;;;;25.33;13.73;;;;;;;28.32;24.15;99250.56;5002948;28;20142;-86
2024/04/06 05:23:20;;;;;;;26.60;12.95;;;;;;;29.10;23.62;99259.06;5004180;28;20038;-91
2024/04/06 05:25:47;;;;;;;26.50;13.75;;;;;;;30.39;22.09;99256.00;5010231;28;20416;-86
2024/04/06 05:28:17;;;;;;;31.83;14.60;;;;;;;31.37;21.26;99253.50;5011400;28;20038;-89
2024/04/06 05:30:46;;;;;;;24.23;13.70;;;;;;;32.33;20.42;99267.31;4989673;28;20490;-87
2024/04/06 05:33:13;;;;;;;23.67;12.80;;;;;;;32.82;19.58;99257.47;4998331;28;20030;-87
2024/04/06 05:35:39;;;;;;;;;;;;;;;32.93;19.63;99263.84;5012178;28;20064;-89
2024/04/06 05:38:04;;;;;;;25.33;12.45;;;;;;;33.00;19.70;99263.66;5019264;28;19965;-83
2024/04/06 05:40:31;;;;;;;21.40;10.45;;;;;;;33.14;20.46;99261.38;4996680;28;20030;-78
2024/04/06 05:42:56;;;;;;;21.88;10.73;;;;;;;33.35;20.55;99260.56;5002491;28;20034;-84
2024/04/06 05:45:22;;;;;;;21.02;10.70;;;;;;;33.72;19.79;99256.38;5012159;28;20065;-84
2024/04/06 05:47:47;;;;;;;25.48;10.65;;;;;;;33.21;19.48;99261.22;4997598;28;20517;-82
2024/04/06 05:50:13;;;;;;;25.02;11.57;;;;;;;33.17;19.40;99260.88;4977679;28;20034;-81
2024/04/06 05:52:38;;;;;;;22.02;10.38;;;;;;;32.84;18.72;99262.63;4995114;28;20034;-84
2024/04/06 05:55:05;;;;;;;21.85;10.05;;;;;;;32.22;20.18;99261.75;4995411;28;20555;-85
2024/04/06 05:57:31;;;;;;;23.73;11.23;;;;;;;31.69;20.20;99257.59;4994330;28;20034;-84
2024/04/06 05:59:56;;;;;;;19.73;8.10;;;;;;;31.28;23.32;99273.00;4993542;28;20116;-81
2024/04/06 06:02:22;;;;;;;29.30;8.50;;;;;;;30.97;24.55;99262.41;4997114;28;20058;-83
2024/04/06 06:04:47;;;;;;;19.55;7.20;;;;;;;30.86;24.86;99257.84;4979856;28;20025;-80
2024/04/06 06:07:13;;;;;;;35.45;7.57;;;;;;;31.12;24.40;99264.63;4995826;28;20109;-80
2024/04/06 06:09:38;;;;;;;20.08;7.57;;;;;;;30.96;24.37;99276.97;4981349;28;20030;-80
2024/04/06 06:12:04;;;;;;;28.38;7.22;;;;;;;30.62;25.47;99273.22;5013949;28;20037;-80
2024/04/06 06:14:30;;;;;;;23.42;6.85;;;;;;;30.24;25.45;99277.16;4980935;28;20030;-86
2024/04/06 06:16:55;;;;;;;23.27;7.68;;;;;;;29.90;25.99;99282.25;4997267;28;20061;-78
2024/04/06 06:19:21;;;;;;;17.75;8.15;;;;;;;29.63;26.01;99284.47;4997130;28;20088;-81
2024/04/06 06:21:46;;;;;;;19.67;7.53;;;;;;;29.37;26.20;99279.22;5014330;28;20511;-81
2024/04/06 06:24:12;;;;;;;21.15;6.88;;;;;;;29.26;26.62;99288.06;4980894;28;20453;-77
2024/04/06 06:26:37;;;;;;;24.73;7.35;;;;;;;29.12;26.94;99283.88;5012248;28;20045;-76
2024/04/06 06:29:03;;;;;;;18.60;6.88;;;;;;;28.96;27.45;99286.09;4995484;28;20493;-77
2024/04/06 06:31:28;;;;;;;19.17;7.13;;;;;;;29.07;26.78;99281.03;5026734;28;20030;-77
2024/04/06 06:33:55;;;;;;;17.40;7.03;;;;;;;29.86;25.94;99279.22;4996499;28;20057;-74
2024/04/06 06:36:20;;;;;;;14.50;6.78;;;;;;;30.82;24.29;99273.66;5012572;28;20105;-75
2024/04/06 06:38:47;;;;;;;14.75;6.53;;;;;;;31.49;22.33;99271.53;4979323;28;20136;-72
2024/04/06 06:41:13;;;;;;;12.15;6.47;;;;;;;31.84;21.92;99271.34;4999968;28;20141;-79
2024/04/06 06:43:38;;;;;;;14.13;5.90;;;;;;;32.44;20.39;99267.19;5034876;28;20563;-84
2024/04/06 06:46:04;;;;;;;11.68;5.53;;;;;;;32.97;18.80;99278.50;5036630;28;20028;-79
2024/04/06 06:48:29;;;;;;;16.52;4.90;;;;;;;33.46;18.20;99283.16;5052294;28;20064;-75
2024/04/06 06:50:55;;;;;;;10.27;4.53;;;;;;;33.37;17.61;99276.56;5019075;28;20048;-76
2024/04/06 06:53:20;;;;;;;11.48;3.92;;;;;;;33.59;17.35;99284.63;5050814;28;20044;-77
2024/04/06 06:55:46;;;;;;;7.53;3.20;;;;;;;33.69;17.14;99273.09;5049863;28;20053;-76
2024/04/06 06:58:11;;;;;;;9.73;2.95;;;;;;;33.71;17.20;99276.38;4996582;28;20049;-76
2024/04/06 07:00:38;;;;;;;8.05;2.78;;;;;;;34.09;16.43;99274.53;5012901;28;20029;-77
2024/04/06 07:03:04;;;;;;;15.40;3.22;;;;;;;34.59;16.43;99275.19;5017708;28;20067;-75
2024/04/06 07:05:29;;;;;;;10.27;3.05;;;;;;;34.84;15.62;99277.25;5014520;28;20025;-73
2024/04/06 07:07:56;;;;;;;6.75;3.47;;;;;;;34.65;15.55;99284.97;5013856;28;20080;-73
2024/04/06 07:10:22;;;;;;;6.32;3.90;;;;;;;34.74;15.92;99283.44;4998843;28;20111;-72
2024/04/06 07:12:48;;;;;;;7.15;4.50;;;;;;;35.14;15.52;99281.97;5032108;28;20488;-74
2024/04/06 07:15:13;;;;;;;10.15;4.65;;;;;;;35.41;15.24;99291.84;5015120;28;20095;-73
2024/04/06 07:17:39;;;;;;;9.93;3.95;;;;;;;35.47;15.34;99290.78;5015690;28;20476;-73
2024/04/06 07:20:05;;;;;;;10.27;3.58;;;;;;;35.66;15.34;99287.53;5015888;28;20477;-73
2024/04/06 07:22:30;;;;;;;8.70;3.85;;;;;;;35.88;15.32;99295.47;5015637;28;20036;-72
2024/04/06 07:24:56;;;;;;;11.55;3.58;;;;;;;36.15;14.92;99291.69;5015470;28;20033;-73
2024/04/06 07:27:21;;;;;;;9.07;3.40;;;;;;;36.43;14.61;99301.19;5015773;28;20025;-73
2024/04/06 07:29:48;;;;;;;8.93;3.10;;;;;;;36.69;14.40;99293.81;5015391;28;20030;-74
2024/04/06 07:32:13;;;;;;;8.03;2.70;;;;;;;36.86;14.15;99288.09;5015281;28;20424;-73
2024/04/06 07:34:39;;;;;;;6.15;3.40;;;;;;;37.08;14.32;99293.13;5015175;28;20025;-72
2024/04/06 07:37:04;;;;;;;7.03;3.90;;;;;;;37.24;14.16;99283.03;5015146;28;20087;-75
2024/04/06 07:39:30;;;;;;;9.00;2.70;;;;;;;37.33;13.99;99290.63;5015761;28;20507;-75
2024/04/06 07:41:55;;;;;;;7.60;2.47;;;;;;;37.46;13.96;99289.97;5014705;28;20052;-74
2024/04/06 07:44:21;;;;;;;8.13;3.10;;;;;;;37.21;15.43;99291.75;5015174;28;20187;-71
2024/04/06 07:46:47;;;;;;;10.25;4.65;;;;;;;36.88;17.72;99291.31;5015219;28;20539;-72
2024/04/06 07:49:12;;;;;;;12.45;4.30;;;;;;;36.80;17.46;99288.34;5032504;28;20052;-71
2024/04/06 07:51:40;;;;;;;13.35;3.90;;;;;;;36.29;18.27;99278.38;5014582;28;20408;-71
2024/04/06 07:54:05;;;;;;;;;;;;;;;35.49;17.47;99283.19;5015722;28;20481;-72
2024/04/06 07:56:30;;;;;;;10.30;4.28;;;;;;;34.92;20.47;99284.88;5033165;28;19915;-71
2024/04/06 07:58:56;;;;;;;7.25;3.90;;;;;;;34.80;19.26;99276.13;5015206;28;20040;-76
2024/04/06 08:01:21;;;;;;;12.80;3.67;;;;;;;35.01;18.63;99270.78;4998561;28;20068;-73
2024/04/06 08:03:47;;;;;;;6.03;3.40;;;;;;;35.19;18.11;99273.03;4999057;28;20025;-74
2024/04/06 08:06:13;;;;;;;6.78;3.00;;;;;;;35.76;17.53;99271.31;5014979;28;20068;-75
2024/04/06 08:08:38;;;;;;;9.38;3.00;;;;;;;36.02;17.21;99271.31;5016264;28;20108;-77
2024/04/06 08:11:04;;;;;;;8.98;3.13;;;;;;;36.23;17.26;99272.94;5015396;28;20072;-77
2024/04/06 08:13:31;;;;;;;5.65;3.10;;;;;;;36.33;16.62;99276.75;5015147;28;20486;-77
2024/04/06 08:15:56;;;;;;;8.35;2.65;;;;;;;36.25;16.60;99272.69;5014793;28;20088;-78
2024/04/06 08:18:22;;;;;;;5.57;2.50;;;;;;;36.28;16.86;99260.44;5014800;28;20065;-77
2024/04/06 08:20:47;;;;;;;6.05;2.53;;;;;;;36.45;16.82;99258.22;5015033;28;20404;-76
2024/04/06 08:23:16;;;;;;;4.45;2.33;;;;;;;36.32;16.41;99262.34;5014761;28;20029;-77
2024/04/06 08:25:42;;;;;;;7.68;2.22;;;;;;;36.02;16.89;99247.66;5015703;28;20033;-78
2024/04/06 08:28:07;;;;;;;7.25;2.20;;;;;;;36.32;17.01;99250.66;4998475;28;20029;-79
2024/04/06 08:30:33;;;;;;;4.80;2.35;;;;;;;36.45;15.88;99247.34;5014878;28;20033;-76
2024/04/06 08:32:59;;;;;;;5.43;2.40;;;;;;;36.35;17.17;99244.69;5031503;28;20042;-77
2024/04/06 08:35:24;;;;;;;5.63;2.28;;;;;;;36.45;16.76;99246.56;5015354;28;20033;-76
2024/04/06 08:37:50;;;;;;;4.00;2.67;;;;;;;36.29;17.08;99246.56;4998015;28;20511;-76
2024/04/06 08:40:16;;;;;;;9.73;3.00;;;;;;;36.41;16.44;99249.00;5014576;28;20053;-77
2024/04/06 08:42:43;;;;;;;4.35;2.50;;;;;;;36.32;16.70;99240.59;5014348;28;20489;-77
2024/04/06 08:45:08;;;;;;;9.23;2.72;;;;;;;36.33;16.45;99244.94;5014390;28;20017;-78
2024/04/06 08:47:34;;;;;;;5.78;2.70;;;;;;;36.07;16.54;99244.13;4997304;28;20037;-77
2024/04/06 08:50:10;;;;;;;4.18;2.47;;;;;;;35.77;16.96;99240.38;5014678;28;20508;-77
2024/04/06 08:52:36;;;;;;;4.63;2.47;;;;;;;35.77;17.16;99234.09;5015196;28;20037;-77
2024/04/06 08:55:03;;;;;;;7.70;2.40;;;;;;;35.90;17.12;99230.03;5032388;28;20030;-77
2024/04/06 08:57:30;;;;;;;3.20;2.20;;;;;;;35.85;17.55;99226.25;5018537;28;20480;-77
2024/04/06 08:59:56;;;;;;;5.05;2.42;;;;;;;35.61;16.93;99220.47;5002261;28;20033;-76
2024/04/06 09:02:22;;;;;;;6.28;2.03;;;;;;;35.52;17.39;99211.28;5017578;28;20068;-77
2024/04/06 09:04:48;;;;;;;4.05;1.70;;;;;;;35.59;16.89;99222.66;5018457;28;20484;-77
2024/04/06 09:07:13;;;;;;;3.55;2.03;;;;;;;34.65;17.84;99209.06;5001713;28;20028;-77
2024/04/06 09:09:39;;;;;;;8.63;2.42;;;;;;;34.58;18.21;99211.19;5035523;28;20057;-78
2024/04/06 09:12:05;;;;;;;4.53;2.40;;;;;;;34.76;18.48;99205.34;5034745;28;20417;-77
2024/04/06 09:14:31;;;;;;;2.90;1.70;;;;;;;34.56;18.54;99206.03;5017706;28;20059;-78
2024/04/06 09:16:57;;;;;;;4.03;1.67;;;;;;;34.59;18.69;99207.41;5017956;28;20034;-76
2024/04/06 09:19:24;;;;;;;3.05;1.77;;;;;;;34.54;18.31;99197.38;5001238;28;20029;-76
2024/04/06 09:21:50;;;;;;;3.38;2.00;;;;;;;34.65;19.02;99209.06;5017754;28;20041;-75
2024/04/06 09:24:15;;;;;;;4.72;1.60;;;;;;;34.59;18.79;99207.41;5018073;28;20030;-77
2024/04/06 09:26:42;;;;;;;2.90;1.83;;;;;;;34.77;18.48;99206.97;5018122;28;20439;-77
2024/04/06 09:29:08;;;;;;;6.63;1.88;;;;;;;34.55;18.34;99193.56;5018433;28;20533;-77
2024/04/06 09:31:33;;;;;;;6.10;1.80;;;;;;;34.74;18.23;99196.69;5017798;28;20442;-77
2024/04/06 09:33:59;;;;;;;4.35;1.50;;;;;;;34.45;17.84;99190.81;5018299;28;20060;-77
2024/04/06 09:36:25;;;;;;;2.60;1.25;;;;;;;34.18;18.19;99190.91;5034959;28;20080;-77
2024/04/06 09:38:52;;;;;;;2.90;1.20;;;;;;;33.76;18.75;99187.06;5018444;28;20029;-77
2024/04/06 09:41:19;;;;;;;3.95;1.23;;;;;;;33.66;19.17;99185.09;5018134;28;20461;-78
2024/04/06 09:43:49;;;;;;;4.18;1.20;;;;;;;33.11;19.44;99180.75;5018463;28;20413;-76
2024/04/06 09:46:16;;;;;;;3.00;1.33;;;;;;;32.86;19.82;99184.00;5017765;28;20036;-78
2024/04/06 09:48:41;;;;;;;4.53;1.10;;;;;;;32.79;19.70;99176.88;5017944;28;20501;-77
2024/04/06 09:51:07;;;;;;;6.03;1.20;;;;;;;32.68;20.40;99185.13;5001039;28;20355;-77
2024/04/06 09:53:34;;;;;;;5.30;1.00;;;;;;;32.51;20.27;99169.75;5017679;28;20022;-77
2024/04/06 09:55:59;;;;;;;2.65;1.38;;;;;;;32.58;20.21;99164.19;5018381;28;20036;-78
2024/04/06 09:58:28;;;;;;;3.10;1.02;;;;;;;32.76;20.83;99174.69;5017101;28;20063;-77
2024/04/06 10:00:56;;;;;;;4.90;1.20;;;;;;;32.71;20.36;99161.13;5017842;28;20466;-78
2024/04/06 10:03:22;;;;;;;3.15;1.10;;;;;;;32.79;20.52;99152.56;5018140;28;20408;-78
2024/04/06 10:05:49;;;;;;;2.00;0.88;;;;;;;32.84;20.37;99149.09;5033625;28;20034;-77
2024/04/06 10:08:15;;;;;;;5.03;1.40;;;;;;;32.96;20.63;99146.25;5001057;28;20028;-77
2024/04/06 10:10:45;;;;;;;2.92;1.00;;;;;;;32.99;20.15;99134.94;5017736;28;20037;-77
2024/04/06 10:13:10;;;;;;;3.08;1.10;;;;;;;32.71;20.33;99130.59;5016558;28;20030;-76
2024/04/06 10:15:36;;;;;;;1.73;0.80;;;;;;;32.59;20.19;99128.81;5016899;28;20045;-78
2024/04/06 10:18:02;;;;;;;3.17;1.20;;;;;;;32.45;20.16;99135.63;5000828;28;20049;-76
2024/04/06 10:20:28;;;;;;;2.58;0.98;;;;;;;32.41;20.58;99134.50;5017420;28;20105;-78
2024/04/06 10:23:00;;;;;;;1.90;1.02;;;;;;;32.28;20.61;99133.81;5000456;28;20603;-78
2024/04/06 10:25:37;;;;;;;2.40;0.90;;;;;;;32.19;20.66;99123.69;5017881;28;20043;-77
2024/04/06 10:28:06;;;;;;;2.28;0.75;;;;;;;32.09;20.86;99117.09;5033505;28;20412;-77
2024/04/06 10:30:32;;;;;;;5.13;1.17;;;;;;;32.07;20.93;99116.50;5018355;28;20104;-76
2024/04/06 10:32:58;;;;;;;1.77;0.90;;;;;;;31.89;21.65;99108.66;5017020;28;20140;-77
2024/04/06 10:35:24;;;;;;;3.83;1.02;;;;;;;31.66;21.40;99113.19;5016569;28;20531;-76
2024/04/06 10:37:50;;;;;;;3.13;1.20;;;;;;;31.50;21.38;99114.81;4999973;28;20662;-77
2024/04/06 10:40:15;;;;;;;2.60;1.10;;;;;;;31.34;21.69;99108.34;5016466;28;20044;-77
2024/04/06 10:42:41;;;;;;;3.83;0.70;;;;;;;31.12;20.76;99116.34;5016030;28;20427;-76
2024/04/06 10:45:08;;;;;;;3.40;1.00;;;;;;;31.00;20.91;99091.31;5016190;28;20083;-76
2024/04/06 10:47:37;;;;;;;4.68;0.90;;;;;;;30.82;20.85;99095.81;5016341;28;20100;-77
2024/04/06 10:50:03;;;;;;;6.85;1.45;;;;;;;30.77;20.55;99081.41;5016794;28;20512;-77
2024/04/06 10:52:28;;;;;;;5.85;1.05;;;;;;;30.55;20.83;99084.75;5016418;28;20029;-77
2024/04/06 10:54:54;;;;;;;2.72;1.10;;;;;;;30.62;21.74;99088.16;5016567;28;20068;-76
2024/04/06 10:57:22;;;;;;;3.40;1.02;;;;;;;30.71;21.69;99077.81;5016424;28;20025;-77
2024/04/06 10:59:48;;;;;;;1.92;1.00;;;;;;;30.70;21.65;99078.06;5016972;28;20056;-76
2024/04/06 11:02:13;;;;;;;2.47;0.80;;;;;;;30.61;21.43;99085.69;5015884;28;20053;-76
2024/04/06 11:04:39;;;;;;;3.10;0.80;;;;;;;30.43;20.88;99070.53;4999829;28;20034;-78
2024/04/06 11:07:05;;;;;;;4.30;0.80;;;;;;;30.34;21.54;99069.25;5015824;28;20041;-76
2024/04/06 11:09:31;;;;;;;2.95;0.85;;;;;;;30.26;21.21;99067.72;5015679;28;20036;-77
2024/04/06 11:11:57;;;;;;;3.78;0.75;;;;;;;29.92;20.60;99071.06;4999094;28;20492;-77
2024/04/06 11:14:25;;;;;;;2.40;0.68;;;;;;;30.02;22.04;99070.47;4998743;28;20041;-76
2024/04/06 11:16:54;;;;;;;1.55;0.90;;;;;;;30.12;21.97;99051.84;4998805;28;20022;-76
2024/04/06 11:19:20;;;;;;;4.57;0.90;;;;;;;30.13;22.30;99050.78;5015437;28;20116;-78
2024/04/06 11:21:46;;;;;;;6.82;0.93;;;;;;;30.10;22.58;99040.50;5015430;28;20029;-76
2024/04/06 11:24:12;;;;;;;3.10;1.02;;;;;;;30.06;22.00;99033.97;5015713;28;20473;-77